首页
METAR-TAF:

METAR-TAF

机场 :

布朗斯維爾, 得克萨斯州, 美国

纬度: 25-54-51N, 经度: 097-25-23W, 海拔: 7米

当前天气观测

该预报发布于1小时和7分钟前的00:53 UTC
风速11节,风向
温度 31°C
湿度 75%
气压 1007 hPa
能見度: 9.7公里
散云层高于1900英尺

METAR: KBRO 210053Z 10011KT 6SM HZ SCT019 31/26 A2974 RMK AO2 SLP071 T03060256

时间: 21:00 (02:00 UTC)

预报

该预报发布于2小时和40分钟前的23:20 UTC
预报有效从21日的 00点(UTC)到 21日的 24点(UTC)
风速11节,风向东转东南
能見度: 10公里
散云层高于2700英尺
多云层高于3500英尺
从 21日的 0400点(UTC)
风速9节,风向东南
能見度: 10公里
多云层高于1400英尺
从 21日的 0600点(UTC)
风速9节,风向东南
能見度: 10公里
多云层高于2200英尺
从 21日的 0700点(UTC)
风速8节,风向南转南东
能見度: 10公里
多云层高于1900英尺
从 21日的 1300点(UTC)
风速10节,风向南转南东
能見度: 9.7公里
散云层高于2000英尺
霾,

TAF: KBRO 202320Z 2100/2124 11011KT P6SM SCT027 BKN035 FM210400 13009KT P6SM BKN014 FM210600 14009KT P6SM BKN022 FM210700 15008KT P6SM BKN019 FM211300 15010KT 6SM HZ SCT020

超过4000个机场的气象观测和天气预报(METAR&TAF报告)。

可查询的气象台以黄色和红色小点在地图上表示。

将鼠标移到小点上方,可查看气象台名称。

然后点击查看天气观测和预报。

如需切换地图:点击带黑十字的绿色按钮放大地图;点击带横线的绿色按钮缩小地图;或者点击绿色箭头查看邻近地区的地图。


METAR-TAF: